Time;durP1;ratioP1;P1;durP2;ratioP2;P2;SDS_P1;SDS_P2;PMS_P1;PMS_P2;Temp;Humidity;BMP_temperature;BMP_pressure;BME280_temperature;BME280_humidity;BME280_pressure;Samples;Min_cycle;Max_cycle;Signal;HPM_P1;HPM_P2
2024/01/02 00:01:05;;;;;;;8.70;4.85;;;;;;;0.73;100.00;96274.13;5000177;28;20570;-72
2024/01/02 00:03:30;;;;;;;9.52;3.22;;;;;;;1.32;100.00;96273.75;5003020;28;20038;-70
2024/01/02 00:05:56;;;;;;;9.23;3.80;;;;;;;1.62;100.00;96276.59;5004181;28;20388;-72
2024/01/02 00:08:21;;;;;;;6.90;3.03;;;;;;;1.97;100.00;96271.16;4997262;28;20502;-71
2024/01/02 00:10:47;;;;;;;3.58;2.67;;;;;;;2.18;100.00;96270.44;5020412;28;20104;-70
2024/01/02 00:13:12;;;;;;;4.65;2.60;;;;;;;2.18;100.00;96268.56;5007974;28;20040;-71
2024/01/02 00:15:38;;;;;;;3.47;2.60;;;;;;;2.29;100.00;96261.69;5015034;28;20408;-71
2024/01/02 00:18:03;;;;;;;3.40;2.13;;;;;;;2.50;100.00;96252.84;5018146;28;20084;-72
2024/01/02 00:20:29;;;;;;;8.07;2.47;;;;;;;2.69;100.00;96252.44;5011604;28;20042;-71
2024/01/02 00:22:54;;;;;;;4.18;1.92;;;;;;;2.84;100.00;96245.66;5017785;28;20441;-70
2024/01/02 00:25:20;;;;;;;5.97;2.30;;;;;;;2.87;100.00;96242.31;5013278;28;20052;-70
2024/01/02 00:27:45;;;;;;;8.60;2.33;;;;;;;3.06;100.00;96242.69;5011703;28;20069;-70
2024/01/02 00:30:11;;;;;;;4.95;2.13;;;;;;;3.15;100.00;96229.09;5016727;28;20037;-70
2024/01/02 00:32:36;;;;;;;5.72;2.15;;;;;;;3.30;100.00;96225.00;5020574;28;20045;-70
2024/01/02 00:35:03;;;;;;;7.68;2.08;;;;;;;3.42;100.00;96218.81;5011350;28;20041;-72
2024/01/02 00:37:28;;;;;;;9.80;1.83;;;;;;;3.37;100.00;96219.84;5016677;28;20029;-70
2024/01/02 00:39:54;;;;;;;8.75;2.30;;;;;;;3.29;100.00;96204.44;5017165;28;20366;-71
2024/01/02 00:42:19;;;;;;;5.40;2.17;;;;;;;3.48;100.00;96203.19;5025283;28;20705;-71
2024/01/02 00:44:46;;;;;;;4.80;2.10;;;;;;;3.55;100.00;96204.22;5012925;28;20046;-71
2024/01/02 00:47:11;;;;;;;9.63;2.45;;;;;;;3.45;100.00;96196.50;5015550;28;20045;-71
2024/01/02 00:49:38;;;;;;;5.50;1.83;;;;;;;3.54;100.00;96199.94;5011787;28;20037;-70
2024/01/02 00:52:04;;;;;;;3.70;1.52;;;;;;;3.55;100.00;96196.09;5013658;28;20100;-70
2024/01/02 00:54:29;;;;;;;5.50;2.10;;;;;;;3.59;100.00;96180.75;5031745;28;20095;-71
2024/01/02 00:56:55;;;;;;;6.93;1.90;;;;;;;3.61;100.00;96186.63;5008160;28;20037;-71
2024/01/02 00:59:20;;;;;;;3.90;1.83;;;;;;;3.61;100.00;96175.03;5016972;28;20041;-71
2024/01/02 01:01:46;;;;;;;4.55;1.70;;;;;;;3.67;100.00;96178.31;4996062;28;20061;-71
2024/01/02 01:04:11;;;;;;;3.95;1.50;;;;;;;3.73;100.00;96177.75;5002219;28;20042;-72
2024/01/02 01:06:37;;;;;;;4.35;1.40;;;;;;;3.72;100.00;96175.38;5009316;28;20042;-71
2024/01/02 01:09:03;;;;;;;3.20;1.52;;;;;;;3.80;100.00;96158.25;5002295;28;20133;-72
2024/01/02 01:11:28;;;;;;;7.13;1.70;;;;;;;3.81;100.00;96152.50;5014919;28;20853;-72
2024/01/02 01:13:54;;;;;;;2.45;1.30;;;;;;;3.77;100.00;96156.22;5024499;28;20025;-71
2024/01/02 01:16:19;;;;;;;4.63;1.80;;;;;;;3.63;100.00;96145.69;5032871;28;20129;-71
2024/01/02 01:18:45;;;;;;;4.05;1.67;;;;;;;3.73;100.00;96155.31;5015619;28;20122;-69
2024/01/02 01:21:10;;;;;;;7.03;1.70;;;;;;;3.75;100.00;96151.13;5010098;28;20049;-71
2024/01/02 01:23:36;;;;;;;3.95;1.35;;;;;;;3.70;100.00;96151.34;5040055;28;20073;-71
2024/01/02 01:26:01;;;;;;;3.10;1.63;;;;;;;3.76;100.00;96141.09;5009728;28;20040;-69
2024/01/02 01:28:26;;;;;;;5.78;1.60;;;;;;;3.78;100.00;96147.75;5015195;28;20046;-69
2024/01/02 01:30:52;;;;;;;4.60;1.60;;;;;;;3.82;100.00;96145.97;5024131;28;20560;-70
2024/01/02 01:33:17;;;;;;;6.03;1.90;;;;;;;3.80;100.00;96139.31;5021652;28;20045;-70
2024/01/02 01:35:43;;;;;;;3.22;1.48;;;;;;;3.77;100.00;96145.38;5023586;28;20044;-71
2024/01/02 01:38:08;;;;;;;4.35;1.45;;;;;;;3.83;100.00;96152.97;5006182;28;20392;-70
2024/01/02 01:40:34;;;;;;;2.88;1.60;;;;;;;3.90;100.00;96144.25;5009958;28;20125;-71
2024/01/02 01:43:00;;;;;;;2.83;1.60;;;;;;;3.90;100.00;96146.19;5015003;28;20080;-71
2024/01/02 01:45:25;;;;;;;3.45;1.88;;;;;;;3.89;100.00;96131.88;5000769;28;20053;-72
2024/01/02 01:47:51;;;;;;;3.80;1.70;;;;;;;3.93;100.00;96140.09;5007018;28;20044;-71
2024/01/02 01:50:17;;;;;;;4.95;1.60;;;;;;;3.88;100.00;96129.50;5001530;28;20042;-68
2024/01/02 01:52:43;;;;;;;3.50;1.52;;;;;;;3.83;100.00;96134.00;5021107;28;20049;-70
2024/01/02 01:55:10;;;;;;;2.60;1.60;;;;;;;3.89;100.00;96126.44;5009180;28;20050;-68
2024/01/02 01:57:36;;;;;;;3.70;1.73;;;;;;;3.85;100.00;96124.72;5037716;28;20065;-69
2024/01/02 02:00:04;;;;;;;3.10;1.60;;;;;;;3.80;100.00;96126.53;5040335;28;20132;-70
2024/01/02 02:02:32;;;;;;;2.67;1.45;;;;;;;3.91;100.00;96128.81;5009160;28;20037;-68
2024/01/02 02:04:59;;;;;;;3.83;1.50;;;;;;;3.94;100.00;96126.22;5013487;28;20087;-69
2024/01/02 02:07:26;;;;;;;2.60;1.50;;;;;;;3.97;100.00;96130.16;5003800;28;20069;-71
2024/01/02 02:09:51;;;;;;;6.65;2.38;;;;;;;3.98;100.00;96121.72;5005135;28;20057;-72
2024/01/02 02:12:17;;;;;;;3.13;1.80;;;;;;;4.06;100.00;96122.72;5009142;28;20045;-72
2024/01/02 02:14:42;;;;;;;3.88;1.92;;;;;;;4.04;100.00;96114.16;5021472;28;20049;-71
2024/01/02 02:17:08;;;;;;;2.45;1.60;;;;;;;3.83;100.00;96114.22;5002716;28;20119;-72
2024/01/02 02:19:33;;;;;;;4.72;1.58;;;;;;;3.75;100.00;96117.84;5013918;28;20060;-71
2024/01/02 02:22:00;;;;;;;3.22;1.40;;;;;;;3.75;100.00;96112.44;5020824;28;20041;-72
2024/01/02 02:24:26;;;;;;;4.00;1.70;;;;;;;3.66;100.00;96117.94;5000647;28;20049;-74
2024/01/02 02:26:55;;;;;;;2.35;1.40;;;;;;;3.55;100.00;96114.88;5004962;28;20052;-72
2024/01/02 02:29:20;;;;;;;2.87;1.77;;;;;;;3.45;100.00;96105.25;4998743;28;20137;-72
2024/01/02 02:31:46;;;;;;;2.70;1.70;;;;;;;3.37;100.00;96099.94;5012356;28;20128;-71
2024/01/02 02:34:11;;;;;;;5.10;1.70;;;;;;;3.31;100.00;96093.13;4998453;28;20034;-71
2024/01/02 02:36:36;;;;;;;5.28;2.03;;;;;;;3.21;100.00;96084.31;5016555;28;20525;-71
2024/01/02 02:39:02;;;;;;;2.17;1.20;;;;;;;3.26;100.00;96077.91;5024179;28;20034;-72
2024/01/02 02:41:27;;;;;;;1.67;1.33;;;;;;;3.28;100.00;96077.56;5008641;28;20052;-71
2024/01/02 02:43:53;;;;;;;3.63;2.00;;;;;;;3.19;100.00;96075.75;5024058;28;20049;-71
2024/01/02 02:46:18;;;;;;;4.25;1.85;;;;;;;3.04;100.00;96082.59;5006892;28;20056;-72
2024/01/02 02:48:43;;;;;;;5.82;2.00;;;;;;;2.98;100.00;96073.09;5012547;28;20049;-72
2024/01/02 02:51:10;;;;;;;2.58;1.70;;;;;;;3.01;100.00;96069.72;5010085;28;20415;-71
2024/01/02 02:53:36;;;;;;;3.28;1.55;;;;;;;3.08;100.00;96071.06;5022825;28;20041;-71
2024/01/02 02:56:02;;;;;;;3.72;1.73;;;;;;;3.06;100.00;96058.69;5022303;28;20690;-71
2024/01/02 02:58:27;;;;;;;4.03;1.50;;;;;;;3.30;100.00;96057.16;5020550;28;20583;-72
2024/01/02 03:00:53;;;;;;;5.10;1.70;;;;;;;3.41;100.00;96044.78;5020384;28;20037;-72
2024/01/02 03:03:18;;;;;;;4.18;1.48;;;;;;;3.62;100.00;96047.41;5018368;28;20042;-71
2024/01/02 03:05:43;;;;;;;3.50;1.17;;;;;;;3.76;100.00;96047.09;5022440;28;20046;-71
2024/01/02 03:08:09;;;;;;;3.83;1.75;;;;;;;3.85;100.00;96038.81;5011061;28;20069;-71
2024/01/02 03:10:34;;;;;;;3.28;1.17;;;;;;;3.92;100.00;96041.75;5013914;28;20046;-71
2024/01/02 03:12:59;;;;;;;4.00;1.52;;;;;;;3.95;100.00;96032.97;5019237;28;20512;-71
2024/01/02 03:15:25;;;;;;;3.03;1.27;;;;;;;3.89;100.00;96033.53;5000871;28;20140;-70
2024/01/02 03:17:50;;;;;;;3.00;1.20;;;;;;;3.91;100.00;96026.66;5020311;28;20623;-70
2024/01/02 03:20:16;;;;;;;2.83;1.13;;;;;;;3.92;100.00;96019.31;5009346;28;20047;-73
2024/01/02 03:22:41;;;;;;;2.90;1.30;;;;;;;3.85;100.00;96019.88;5013437;28;20120;-71
2024/01/02 03:25:07;;;;;;;3.72;1.30;;;;;;;3.78;100.00;96017.75;5021834;28;20045;-70
2024/01/02 03:27:32;;;;;;;3.08;1.30;;;;;;;3.76;100.00;96025.41;5032851;28;20056;-70
2024/01/02 03:29:58;;;;;;;2.35;1.48;;;;;;;3.83;100.00;96024.84;5025419;28;20045;-71
2024/01/02 03:32:23;;;;;;;2.78;1.48;;;;;;;3.83;100.00;96025.66;5018618;28;20691;-71
2024/01/02 03:34:50;;;;;;;4.22;1.30;;;;;;;3.72;100.00;96029.91;5020438;28;20049;-71
2024/01/02 03:37:16;;;;;;;3.83;1.40;;;;;;;3.78;100.00;96025.88;5016015;28;20049;-69
2024/01/02 03:39:41;;;;;;;3.63;1.38;;;;;;;3.91;100.00;96018.53;5019891;28;20041;-71
2024/01/02 03:42:07;;;;;;;1.83;1.30;;;;;;;3.92;100.00;96019.31;5010909;28;20029;-71
2024/01/02 03:44:32;;;;;;;3.38;1.52;;;;;;;3.96;100.00;96021.00;5012351;28;20065;-71
2024/01/02 03:46:59;;;;;;;1.75;1.20;;;;;;;3.82;100.00;96013.22;5019111;28;20033;-72
2024/01/02 03:49:25;;;;;;;4.13;1.80;;;;;;;3.82;100.00;96007.03;5028786;28;20095;-70
2024/01/02 03:51:51;;;;;;;3.67;1.80;;;;;;;3.69;100.00;96006.22;5020744;28;20069;-72
2024/01/02 03:54:17;;;;;;;3.10;1.50;;;;;;;3.56;100.00;96005.41;5017774;28;20038;-70
2024/01/02 03:56:44;;;;;;;3.40;1.60;;;;;;;3.49;100.00;96007.91;5020305;28;20566;-70
2024/01/02 03:59:09;;;;;;;2.90;1.60;;;;;;;3.41;100.00;96006.88;5016639;28;20053;-71
2024/01/02 04:01:42;;;;;;;2.80;1.73;;;;;;;3.45;100.00;95988.81;5021567;28;20041;-72
2024/01/02 04:04:08;;;;;;;4.18;1.42;;;;;;;3.76;100.00;95982.09;5018352;28;20037;-70
2024/01/02 04:06:33;;;;;;;1.85;1.20;;;;;;;3.75;100.00;95991.31;5024726;28;20057;-72
2024/01/02 04:08:58;;;;;;;1.13;0.95;;;;;;;3.78;100.00;95989.84;5013583;28;20077;-71
2024/01/02 04:11:24;;;;;;;5.45;1.30;;;;;;;3.73;100.00;95987.38;5015860;28;20041;-72
2024/01/02 04:13:50;;;;;;;2.58;1.17;;;;;;;3.70;100.00;95979.94;5018838;28;20041;-71
2024/01/02 04:16:16;;;;;;;2.85;1.35;;;;;;;3.65;100.00;95983.66;5007342;28;20046;-72
2024/01/02 04:18:41;;;;;;;1.45;1.10;;;;;;;3.80;100.00;95985.69;5017936;28;20041;-71
2024/01/02 04:21:06;;;;;;;3.22;1.20;;;;;;;3.96;100.00;95979.56;5014969;28;20048;-73
2024/01/02 04:23:32;;;;;;;1.25;1.05;;;;;;;3.93;100.00;95969.41;5020786;28;20063;-72
2024/01/02 04:25:57;;;;;;;2.63;1.50;;;;;;;3.81;100.00;95962.88;5027255;28;20043;-72
2024/01/02 04:28:23;;;;;;;3.03;1.33;;;;;;;3.87;100.00;95966.16;5008971;28;20137;-71
2024/01/02 04:30:48;;;;;;;1.58;1.20;;;;;;;3.77;100.00;95961.97;5017675;28;20041;-70
2024/01/02 04:33:13;;;;;;;2.88;1.20;;;;;;;3.73;100.00;95957.59;5007033;28;20103;-69
2024/01/02 04:35:39;;;;;;;1.90;1.20;;;;;;;3.69;100.00;95948.56;5020060;28;20575;-71
2024/01/02 04:38:04;;;;;;;3.20;1.33;;;;;;;3.66;100.00;95944.63;5027834;28;20144;-71
2024/01/02 04:40:30;;;;;;;2.65;1.30;;;;;;;3.63;100.00;95950.69;5020526;28;20064;-71
2024/01/02 04:42:55;;;;;;;1.42;1.10;;;;;;;3.59;100.00;95947.88;5011930;28;20061;-69
2024/01/02 04:45:21;;;;;;;1.40;1.20;;;;;;;3.50;100.00;95949.16;5006912;28;20591;-69
2024/01/02 04:47:46;;;;;;;2.47;1.20;;;;;;;3.53;100.00;95943.84;5017832;28;20044;-71
2024/01/02 04:50:11;;;;;;;2.03;1.23;;;;;;;3.58;100.00;95934.69;5006402;28;20440;-71
2024/01/02 04:52:37;;;;;;;2.03;1.30;;;;;;;3.71;100.00;95932.75;5014771;28;20597;-70
2024/01/02 04:55:03;;;;;;;4.95;1.35;;;;;;;3.74;100.00;95932.06;5011030;28;20718;-69
2024/01/02 04:57:28;;;;;;;2.53;1.35;;;;;;;3.74;100.00;95929.38;5017324;28;20076;-70
2024/01/02 04:59:53;;;;;;;3.28;1.35;;;;;;;3.93;100.00;95929.56;5010809;28;20366;-70
2024/01/02 05:02:22;;;;;;;2.15;1.50;;;;;;;3.69;100.00;95911.44;5006957;28;20049;-71
2024/01/02 05:04:49;;;;;;;1.30;1.20;;;;;;;3.49;100.00;95902.31;5019356;28;20066;-70
2024/01/02 05:07:14;;;;;;;1.80;1.17;;;;;;;3.87;100.00;95893.00;4998049;28;20111;-69
2024/01/02 05:09:39;;;;;;;2.42;1.17;;;;;;;4.06;100.00;95880.75;5007670;28;20500;-70
2024/01/02 05:12:05;;;;;;;6.75;1.70;;;;;;;4.16;100.00;95875.63;5006231;28;20044;-70
2024/01/02 05:14:30;;;;;;;2.38;1.15;;;;;;;4.25;100.00;95870.06;5010862;28;20576;-70
2024/01/02 05:16:55;;;;;;;2.17;1.30;;;;;;;4.33;100.00;95866.41;5010779;28;20128;-70
2024/01/02 05:19:21;;;;;;;2.60;1.15;;;;;;;4.48;100.00;95861.34;5007037;28;20040;-70
2024/01/02 05:21:47;;;;;;;2.78;1.20;;;;;;;4.53;100.00;95850.25;5010732;28;20065;-71
2024/01/02 05:24:12;;;;;;;1.40;1.00;;;;;;;4.42;100.00;95846.50;5005511;28;20048;-70
2024/01/02 05:26:37;;;;;;;3.97;1.77;;;;;;;4.35;100.00;95852.50;5011767;28;20045;-70
2024/01/02 05:29:03;;;;;;;9.00;4.43;;;;;;;4.26;100.00;95854.59;5008630;28;20489;-70
2024/01/02 05:31:28;;;;;;;4.40;2.03;;;;;;;4.20;100.00;95854.84;5011717;28;20503;-70
2024/01/02 05:33:54;;;;;;;1.77;1.15;;;;;;;4.18;100.00;95857.09;5003499;28;20145;-73
2024/01/02 05:36:19;;;;;;;2.65;1.20;;;;;;;4.08;100.00;95854.88;5012399;28;20145;-71
2024/01/02 05:38:45;;;;;;;1.52;1.05;;;;;;;4.01;100.00;95860.09;5024607;28;20074;-69
2024/01/02 05:41:10;;;;;;;1.48;1.20;;;;;;;3.97;100.00;95864.63;5034672;28;20046;-70
2024/01/02 05:43:35;;;;;;;1.67;1.02;;;;;;;3.99;100.00;95867.78;5029839;28;20095;-70
2024/01/02 05:46:01;;;;;;;1.60;1.02;;;;;;;3.92;100.00;95857.53;5034722;28;20045;-70
2024/01/02 05:48:26;;;;;;;3.83;1.30;;;;;;;3.89;100.00;95855.53;5012751;28;20377;-70
2024/01/02 05:50:51;;;;;;;1.92;1.17;;;;;;;3.94;100.00;95857.19;5011530;28;20077;-71
2024/01/02 05:53:17;;;;;;;2.35;1.40;;;;;;;3.91;100.00;95841.63;5002726;28;20046;-70
2024/01/02 05:55:42;;;;;;;2.08;1.30;;;;;;;3.90;100.00;95842.75;5016063;28;20048;-69
2024/01/02 05:58:07;;;;;;;2.92;1.33;;;;;;;3.94;100.00;95844.44;4998690;28;20504;-70
2024/01/02 06:00:33;;;;;;;2.28;1.42;;;;;;;3.96;100.00;95835.94;5011657;28;20497;-69
2024/01/02 06:02:58;;;;;;;2.25;1.13;;;;;;;3.97;100.00;95826.72;5018150;28;20041;-69
2024/01/02 06:05:23;;;;;;;2.33;1.13;;;;;;;4.01;100.00;95833.00;5004236;28;20575;-70
2024/01/02 06:07:49;;;;;;;1.13;0.80;;;;;;;3.96;100.00;95828.63;5006490;28;20506;-69
2024/01/02 06:10:14;;;;;;;3.33;0.90;;;;;;;3.90;100.00;95826.50;5008921;28;20041;-69
2024/01/02 06:12:40;;;;;;;4.70;1.00;;;;;;;3.85;100.00;95824.81;5005804;28;20049;-70
2024/01/02 06:15:05;;;;;;;2.20;0.93;;;;;;;4.01;100.00;95822.94;5013849;28;20077;-71
2024/01/02 06:17:31;;;;;;;1.88;1.20;;;;;;;4.15;100.00;95819.84;5008790;28;20142;-71
2024/01/02 06:19:56;;;;;;;1.75;1.10;;;;;;;4.45;100.00;95826.78;5011728;28;20511;-70
2024/01/02 06:22:22;;;;;;;1.67;0.85;;;;;;;4.71;100.00;95826.31;5001479;28;20946;-70
2024/01/02 06:24:47;;;;;;;1.88;1.05;;;;;;;4.87;100.00;95829.81;5007523;28;20042;-70
2024/01/02 06:27:13;;;;;;;2.00;0.80;;;;;;;5.06;100.00;95841.88;5012159;28;20041;-70
2024/01/02 06:29:38;;;;;;;1.27;0.98;;;;;;;5.04;100.00;95846.88;5021062;28;20041;-71
2024/01/02 06:32:04;;;;;;;2.55;1.00;;;;;;;5.04;100.00;95850.38;4999096;28;20041;-70
2024/01/02 06:34:29;;;;;;;1.27;0.90;;;;;;;4.98;100.00;95860.69;5000250;28;20069;-70
2024/01/02 06:36:55;;;;;;;3.70;1.00;;;;;;;4.97;100.00;95867.28;5001011;28;20034;-70
2024/01/02 06:39:20;;;;;;;1.50;1.00;;;;;;;4.96;100.00;95865.69;4998522;28;20120;-72
2024/01/02 06:41:45;;;;;;;0.98;0.90;;;;;;;5.05;100.00;95859.31;5010092;28;20046;-71
2024/01/02 06:44:12;;;;;;;1.45;0.93;;;;;;;4.98;100.00;95859.91;5001294;28;20045;-71
2024/01/02 06:46:38;;;;;;;1.55;0.95;;;;;;;5.00;100.00;95840.56;5009639;28;20042;-70
2024/01/02 06:49:03;;;;;;;3.03;1.20;;;;;;;4.98;100.00;95847.13;5016754;28;20049;-70
2024/01/02 06:51:29;;;;;;;1.33;1.08;;;;;;;5.04;100.00;95842.25;5010345;28;20073;-71
2024/01/02 06:53:55;;;;;;;2.25;1.17;;;;;;;5.05;100.00;95849.22;5020176;28;20045;-71
2024/01/02 06:56:20;;;;;;;1.67;1.25;;;;;;;5.06;100.00;95839.16;5017437;28;20042;-71
2024/01/02 06:58:45;;;;;;;3.30;1.73;;;;;;;5.03;100.00;95848.78;5021402;28;20052;-71
2024/01/02 07:01:14;;;;;;;4.43;2.45;;;;;;;5.02;100.00;95849.91;5017387;28;20123;-71
2024/01/02 07:03:39;;;;;;;2.13;1.08;;;;;;;5.04;100.00;95844.16;5021594;28;20057;-70
2024/01/02 07:06:06;;;;;;;1.55;1.00;;;;;;;5.04;100.00;95847.66;5017131;28;20052;-71
2024/01/02 07:08:31;;;;;;;1.77;1.05;;;;;;;4.96;100.00;95841.25;5015692;28;20060;-71
2024/01/02 07:10:57;;;;;;;2.08;0.95;;;;;;;4.97;100.00;95840.13;5021325;28;20042;-73
2024/01/02 07:13:22;;;;;;;1.40;1.00;;;;;;;5.00;100.00;95854.91;5016834;28;20049;-72
2024/01/02 07:15:47;;;;;;;2.22;1.20;;;;;;;4.95;100.00;95844.31;5010304;28;20178;-70
2024/01/02 07:18:13;;;;;;;1.58;0.90;;;;;;;4.99;100.00;95842.50;5018765;28;20095;-70
2024/01/02 07:20:38;;;;;;;1.35;0.95;;;;;;;4.97;100.00;95831.22;5022895;28;20040;-71
2024/01/02 07:23:03;;;;;;;1.60;1.25;;;;;;;4.98;100.00;95838.97;5016087;28;20250;-70
2024/01/02 07:25:29;;;;;;;4.75;1.50;;;;;;;4.96;100.00;95840.47;5022335;28;20042;-70
2024/01/02 07:27:54;;;;;;;1.77;1.30;;;;;;;5.02;100.00;95841.00;5009992;28;20141;-71
2024/01/02 07:30:20;;;;;;;1.75;1.15;;;;;;;5.01;100.00;95834.00;5017176;28;20048;-75
2024/01/02 07:32:45;;;;;;;1.67;1.02;;;;;;;5.00;100.00;95835.16;5005373;28;20107;-73
2024/01/02 07:35:11;;;;;;;1.33;0.95;;;;;;;5.02;100.00;95830.94;5004362;28;20096;-72
2024/01/02 07:37:36;;;;;;;2.33;1.38;;;;;;;4.98;100.00;95836.28;5029734;28;20076;-73
2024/01/02 07:40:02;;;;;;;2.20;1.25;;;;;;;4.96;100.00;95841.25;5002963;28;20046;-72
2024/01/02 07:42:28;;;;;;;3.08;1.20;;;;;;;4.98;100.00;95841.69;5013799;28;20034;-73
2024/01/02 07:44:53;;;;;;;2.17;1.27;;;;;;;4.98;100.00;95838.97;5019031;28;20140;-71
2024/01/02 07:47:18;;;;;;;2.22;1.60;;;;;;;4.98;100.00;95840.91;5006036;28;20511;-72
2024/01/02 07:49:44;;;;;;;2.53;1.58;;;;;;;4.95;100.00;95847.03;5031033;28;20041;-72
2024/01/02 07:52:09;;;;;;;2.33;1.33;;;;;;;5.05;100.00;95848.44;5011709;28;20530;-72
2024/01/02 07:54:38;;;;;;;1.92;1.10;;;;;;;5.04;100.00;95858.53;5012600;28;20723;-71
2024/01/02 07:57:05;;;;;;;4.57;1.43;;;;;;;5.01;100.00;95850.28;5017501;28;20065;-69
2024/01/02 07:59:30;;;;;;;3.13;1.95;;;;;;;5.06;100.00;95850.81;5019774;28;20613;-72
2024/01/02 08:01:55;;;;;;;5.25;1.80;;;;;;;5.00;100.00;95851.44;5012709;28;20038;-73
2024/01/02 08:04:21;;;;;;;3.53;1.50;;;;;;;5.04;100.00;95857.72;5010778;28;20042;-72
2024/01/02 08:06:46;;;;;;;3.47;1.20;;;;;;;5.05;100.00;95856.59;5001676;28;20042;-73
2024/01/02 08:09:12;;;;;;;3.90;1.30;;;;;;;5.08;100.00;95864.81;5009730;28;20094;-73
2024/01/02 08:11:37;;;;;;;2.38;1.10;;;;;;;5.06;100.00;95864.38;5013477;28;20539;-73
2024/01/02 08:14:02;;;;;;;2.65;1.00;;;;;;;5.03;100.00;95858.88;5009608;28;20077;-72
2024/01/02 08:16:28;;;;;;;2.08;1.20;;;;;;;5.16;100.00;95857.63;5005499;28;20042;-72
2024/01/02 08:18:53;;;;;;;3.05;2.00;;;;;;;5.11;100.00;95861.41;5018551;28;20076;-71
2024/01/02 08:21:19;;;;;;;2.33;1.42;;;;;;;5.19;100.00;95861.59;5004807;28;20508;-73
2024/01/02 08:23:44;;;;;;;1.85;1.25;;;;;;;5.23;100.00;95860.50;5002887;28;20048;-73
2024/01/02 08:26:13;;;;;;;2.25;1.17;;;;;;;5.27;100.00;95863.31;5007049;28;20041;-73
2024/01/02 08:28:38;;;;;;;1.70;1.23;;;;;;;5.22;100.00;95848.09;5016162;28;20057;-73
2024/01/02 08:31:04;;;;;;;2.40;1.33;;;;;;;5.30;100.00;95852.53;5004627;28;20041;-70
2024/01/02 08:33:29;;;;;;;1.35;1.05;;;;;;;5.29;100.00;95842.78;5006978;28;20181;-74
2024/01/02 08:35:54;;;;;;;2.28;1.20;;;;;;;5.36;100.00;95848.38;5019345;28;20050;-71
2024/01/02 08:38:21;;;;;;;1.45;1.00;;;;;;;5.37;100.00;95860.06;5039996;28;20045;-72
2024/01/02 08:40:47;;;;;;;1.90;1.10;;;;;;;5.40;100.00;95858.56;5022169;28;20057;-72
2024/01/02 08:43:12;;;;;;;1.92;1.23;;;;;;;5.40;100.00;95859.34;5018172;28;20041;-72
2024/01/02 08:45:37;;;;;;;1.65;1.20;;;;;;;5.40;100.00;95869.41;5041249;28;20052;-71
2024/01/02 08:48:04;;;;;;;2.60;1.60;;;;;;;5.37;100.00;95862.78;5015799;28;20121;-70
2024/01/02 08:50:30;;;;;;;2.42;1.30;;;;;;;5.49;100.00;95853.72;5021599;28;20041;-71
2024/01/02 08:52:55;;;;;;;2.92;1.27;;;;;;;5.37;100.00;95846.47;5026257;28;20054;-70
2024/01/02 08:55:21;;;;;;;1.23;1.13;;;;;;;5.36;100.00;95853.81;5011786;28;20041;-71
2024/01/02 08:57:46;;;;;;;5.05;1.30;;;;;;;5.51;100.00;95846.81;5028316;28;20599;-71
2024/01/02 09:00:14;;;;;;;2.08;1.13;;;;;;;5.40;100.00;95851.19;5005140;28;20049;-71
2024/01/02 09:02:41;;;;;;;1.88;1.20;;;;;;;5.47;100.00;95859.50;5017403;28;20037;-71
2024/01/02 09:05:07;;;;;;;2.95;1.10;;;;;;;5.58;100.00;95853.53;4999368;28;20046;-70
2024/01/02 09:07:34;;;;;;;1.70;1.00;;;;;;;5.51;100.00;95854.13;5004512;28;20038;-73
2024/01/02 09:09:59;;;;;;;3.08;1.10;;;;;;;5.60;100.00;95856.66;5008443;28;20053;-73
2024/01/02 09:12:24;;;;;;;2.85;1.10;;;;;;;5.70;100.00;95859.63;4996231;28;20038;-73
2024/01/02 09:14:50;;;;;;;1.38;0.95;;;;;;;5.48;100.00;95855.66;5017088;28;20080;-72
2024/01/02 09:17:15;;;;;;;3.28;1.10;;;;;;;5.57;100.00;95865.53;4987404;28;20037;-71
2024/01/02 09:19:40;;;;;;;1.58;1.10;;;;;;;5.68;100.00;95872.78;5000471;28;20123;-72
2024/01/02 09:22:06;;;;;;;1.80;1.10;;;;;;;5.75;100.00;95858.56;5007005;28;20046;-72
2024/01/02 09:24:31;;;;;;;1.92;1.13;;;;;;;5.74;100.00;95865.94;5006001;28;20700;-73
2024/01/02 09:26:59;;;;;;;3.08;1.27;;;;;;;5.69;100.00;95868.94;5007546;28;20067;-73
2024/01/02 09:29:25;;;;;;;2.25;1.10;;;;;;;5.70;100.00;95861.56;4988134;28;20137;-73
2024/01/02 09:31:50;;;;;;;2.95;1.40;;;;;;;5.80;100.00;95873.78;5005631;28;20172;-71
2024/01/02 09:34:16;;;;;;;2.15;1.23;;;;;;;5.73;100.00;95871.72;5007379;28;20041;-72
2024/01/02 09:36:41;;;;;;;3.33;1.52;;;;;;;5.69;100.00;95863.50;5004714;28;20053;-72
2024/01/02 09:39:08;;;;;;;2.53;1.40;;;;;;;5.65;100.00;95873.47;5017821;28;20041;-72
2024/01/02 09:41:36;;;;;;;2.70;1.42;;;;;;;5.74;100.00;95879.53;5023429;28;20163;-72
2024/01/02 09:44:29;;;;;;;1.98;1.25;;;;;;;5.71;100.00;95874.78;5023572;28;20045;-70
2024/01/02 09:47:05;;;;;;;2.17;1.10;;;;;;;5.79;100.00;95870.28;5006355;28;20479;-72
2024/01/02 09:50:03;;;;;;;2.10;1.38;;;;;;;5.63;100.00;95881.19;5011526;28;20156;-71
2024/01/02 09:52:41;;;;;;;2.55;1.42;;;;;;;5.85;100.00;95873.50;4994767;28;20076;-73
2024/01/02 09:55:48;;;;;;;3.50;1.52;;;;;;;5.79;100.00;95872.22;5008731;28;20556;-73
2024/01/02 09:58:18;;;;;;;2.88;1.27;;;;;;;5.51;100.00;95870.44;5012647;28;20045;-72
2024/01/02 10:00:47;;;;;;;3.95;1.60;;;;;;;5.51;100.00;95870.44;5021404;28;20030;-72
2024/01/02 10:03:44;;;;;;;3.65;1.50;;;;;;;5.43;100.00;95863.28;5027926;28;20049;-73
2024/01/02 10:06:46;;;;;;;3.90;1.75;;;;;;;5.55;100.00;95865.91;4999307;28;20046;-73
2024/01/02 10:09:36;;;;;;;1.90;1.30;;;;;;;5.67;100.00;95860.34;4993976;28;20052;-73
2024/01/02 10:12:31;;;;;;;2.40;1.40;;;;;;;5.64;100.00;95846.69;5022586;28;20188;-73
2024/01/02 10:15:07;;;;;;;2.80;1.40;;;;;;;5.65;100.00;95856.41;5011910;28;20041;-73
2024/01/02 10:17:51;;;;;;;4.38;2.17;;;;;;;5.67;100.00;95841.34;5008918;28;20052;-73
2024/01/02 10:20:51;;;;;;;3.80;1.92;;;;;;;5.79;100.00;95848.53;4987924;28;20045;-73
2024/01/02 10:23:38;;;;;;;2.97;1.48;;;;;;;5.95;100.00;95848.50;4998350;28;20045;-73
2024/01/02 10:26:07;;;;;;;4.22;2.10;;;;;;;5.95;100.00;95843.06;5007358;28;20037;-72
2024/01/02 10:28:35;;;;;;;2.55;1.40;;;;;;;5.85;100.00;95836.28;5037553;28;20049;-73
2024/01/02 10:31:25;;;;;;;3.50;1.60;;;;;;;5.77;100.00;95833.75;5003151;28;20046;-73
2024/01/02 10:34:15;;;;;;;;;;;;;;;5.78;100.00;95829.88;5004119;28;20580;-74
2024/01/02 10:36:50;;;;;;;3.58;1.52;;;;;;;5.79;100.00;95824.09;5006185;28;19952;-72
2024/01/02 10:39:31;;;;;;;3.83;1.60;;;;;;;5.82;100.00;95822.59;4998434;28;20116;-73
2024/01/02 10:42:05;;;;;;;3.47;1.77;;;;;;;5.82;100.00;95825.31;5036445;28;20049;-73
2024/01/02 10:44:46;;;;;;;3.33;1.48;;;;;;;5.97;100.00;95823.72;5009026;28;20050;-73
2024/01/02 10:47:11;;;;;;;2.97;1.42;;;;;;;6.00;100.00;95804.75;5011957;28;20100;-73
2024/01/02 10:49:42;;;;;;;5.82;1.90;;;;;;;6.00;100.00;95801.25;5002425;28;20401;-73
2024/01/02 10:52:25;;;;;;;3.13;1.52;;;;;;;6.05;100.00;95799.03;5004425;28;20042;-74
2024/01/02 10:55:02;;;;;;;2.60;1.40;;;;;;;6.01;100.00;95795.44;5022650;28;20420;-74
2024/01/02 10:57:55;;;;;;;2.42;1.23;;;;;;;6.07;100.00;95794.00;5006693;28;20045;-73
2024/01/02 11:00:23;;;;;;;3.70;1.40;;;;;;;5.96;100.00;95778.63;5005076;28;20042;-74
2024/01/02 11:02:57;;;;;;;2.33;1.45;;;;;;;6.02;100.00;95775.28;5007022;28;20060;-74
2024/01/02 11:05:39;;;;;;;2.63;1.50;;;;;;;5.86;100.00;95775.31;5009664;28;20447;-74
2024/01/02 11:08:46;;;;;;;3.60;1.92;;;;;;;6.11;100.00;95769.63;5007337;28;20405;-73
2024/01/02 11:11:13;;;;;;;4.82;2.00;;;;;;;6.18;100.00;95764.31;4988815;28;20045;-72
2024/01/02 11:13:41;;;;;;;2.42;1.35;;;;;;;6.22;100.00;95764.38;5035746;28;20073;-74
2024/01/02 11:16:17;;;;;;;4.43;2.38;;;;;;;6.17;100.00;95759.22;5001123;28;20049;-73
2024/01/02 11:18:47;;;;;;;4.68;2.40;;;;;;;6.37;100.00;95751.81;5013512;28;20183;-74
2024/01/02 11:21:30;;;;;;;6.15;2.60;;;;;;;6.24;100.00;95743.81;5000132;28;20069;-72
2024/01/02 11:24:02;;;;;;;3.67;1.45;;;;;;;6.47;100.00;95743.06;5004911;28;20069;-72
2024/01/02 11:26:30;;;;;;;4.40;1.48;;;;;;;6.42;100.00;95735.97;4997542;28;20042;-74
2024/01/02 11:29:03;;;;;;;1.58;1.20;;;;;;;6.48;100.00;95728.28;5036315;28;20474;-73
2024/01/02 11:31:34;;;;;;;2.65;1.23;;;;;;;6.40;100.00;95719.22;5006236;28;20037;-74
2024/01/02 11:34:25;;;;;;;1.55;1.23;;;;;;;6.54;100.00;95717.91;5019140;28;20471;-72
2024/01/02 11:37:12;;;;;;;3.60;1.60;;;;;;;6.50;100.00;95705.03;5030757;28;20076;-73